createdAt,value
2018-03-24T00:00:16.270Z,20.33
2018-03-24T00:02:51.357Z,19.33
2018-03-24T00:05:25.482Z,20.13
2018-03-24T00:07:59.330Z,18.93
2018-03-24T00:10:34.252Z,20.03
2018-03-24T00:13:09.333Z,19.63
2018-03-24T00:15:43.974Z,18.07
2018-03-24T00:18:17.714Z,18.23
2018-03-24T00:20:52.147Z,19.73
2018-03-24T00:23:26.795Z,18.70
2018-03-24T00:26:02.028Z,18.03
2018-03-24T00:28:37.097Z,19.33
2018-03-24T00:31:11.957Z,19.50
2018-03-24T00:33:45.779Z,18.47
2018-03-24T00:36:19.902Z,19.20
2018-03-24T00:38:55.300Z,19.13
2018-03-24T00:41:29.846Z,18.70
2018-03-24T00:44:04.393Z,18.57
2018-03-24T00:46:38.385Z,18.40
2018-03-24T00:49:12.873Z,19.20
2018-03-24T00:51:47.910Z,18.60
2018-03-24T00:54:22.414Z,19.57
2018-03-24T00:56:56.513Z,19.30
2018-03-24T00:59:30.712Z,20.13
2018-03-24T01:02:05.626Z,20.40
2018-03-24T01:04:40.177Z,21.00
2018-03-24T01:07:14.784Z,20.20
2018-03-24T01:09:49.373Z,20.17
2018-03-24T01:12:23.601Z,20.33
2018-03-24T01:14:58.402Z,20.97
2018-03-24T01:17:32.279Z,20.03
2018-03-24T01:20:06.554Z,19.77
2018-03-24T01:22:41.752Z,21.00
2018-03-24T01:25:16.571Z,19.83
2018-03-24T01:27:51.156Z,20.23
2018-03-24T01:30:25.454Z,20.03
2018-03-24T01:33:00.027Z,20.10
2018-03-24T01:35:33.729Z,21.57
2018-03-24T01:38:07.734Z,19.17
2018-03-24T01:40:42.503Z,19.53
2018-03-24T01:43:16.642Z,20.97
2018-03-24T01:45:51.557Z,20.27
2018-03-24T01:51:16.826Z,21.03
2018-03-24T01:53:53.466Z,22.10
2018-03-24T01:56:27.782Z,21.83
2018-03-24T01:59:02.212Z,21.63
2018-03-24T02:01:36.844Z,21.73
2018-03-24T02:04:11.658Z,21.97
2018-03-24T02:06:45.443Z,21.40
2018-03-24T02:09:19.573Z,23.53
2018-03-24T02:11:54.194Z,22.40
2018-03-24T02:14:28.493Z,21.50
2018-03-24T02:17:02.419Z,21.67
2018-03-24T02:19:36.648Z,23.83
2018-03-24T02:22:11.364Z,21.97
2018-03-24T02:24:48.439Z,23.07
2018-03-24T02:27:23.086Z,22.77
2018-03-24T02:29:58.013Z,22.90
2018-03-24T02:32:32.449Z,23.30
2018-03-24T02:35:06.343Z,23.00
2018-03-24T02:37:41.781Z,22.83
2018-03-24T02:40:16.446Z,23.37
2018-03-24T02:42:50.111Z,23.97
2018-03-24T02:45:23.935Z,22.70
2018-03-24T02:47:57.688Z,23.37
2018-03-24T02:50:32.052Z,23.90
2018-03-24T02:53:06.550Z,23.50
2018-03-24T02:55:40.529Z,23.17
2018-03-24T02:58:14.431Z,22.00
2018-03-24T03:00:48.802Z,24.43
2018-03-24T03:03:24.375Z,24.10
2018-03-24T03:05:58.353Z,23.70
2018-03-24T03:08:32.953Z,23.03
2018-03-24T03:11:07.506Z,23.00
2018-03-24T03:13:41.750Z,23.40
2018-03-24T03:16:16.930Z,22.57
2018-03-24T03:18:50.773Z,22.97
2018-03-24T03:21:24.922Z,22.97
2018-03-24T03:23:59.574Z,22.87
2018-03-24T03:26:34.132Z,23.10
2018-03-24T03:29:08.146Z,22.83
2018-03-24T03:31:46.660Z,22.90
2018-03-24T03:34:21.226Z,22.07
2018-03-24T03:36:55.391Z,23.97
2018-03-24T03:39:29.522Z,27.30
2018-03-24T03:42:04.025Z,22.93
2018-03-24T03:44:39.338Z,23.90
2018-03-24T03:47:14.526Z,23.83
2018-03-24T03:49:49.301Z,22.80
2018-03-24T03:52:23.759Z,22.93
2018-03-24T03:54:57.471Z,23.47
2018-03-24T03:57:31.498Z,22.80
2018-03-24T04:00:05.126Z,23.27
2018-03-24T04:02:39.689Z,22.03
2018-03-24T04:05:13.761Z,22.17
2018-03-24T04:07:47.822Z,22.03
2018-03-24T04:10:22.367Z,23.10
2018-03-24T04:12:56.025Z,22.20
2018-03-24T04:15:29.811Z,21.10
2018-03-24T04:18:04.261Z,22.53
2018-03-24T04:20:38.370Z,21.73
2018-03-24T04:23:12.913Z,21.63
2018-03-24T04:25:47.170Z,21.53
2018-03-24T04:28:21.437Z,22.50
2018-03-24T04:30:55.976Z,21.90
2018-03-24T04:33:30.585Z,20.60
2018-03-24T04:36:04.285Z,21.30
2018-03-24T04:38:38.382Z,21.33
2018-03-24T04:41:12.374Z,22.10
2018-03-24T04:43:46.726Z,20.87
2018-03-24T04:46:21.437Z,20.27
2018-03-24T04:48:55.618Z,22.23
2018-03-24T04:51:29.442Z,20.63
2018-03-24T04:54:03.493Z,21.57
2018-03-24T04:56:38.893Z,20.43
2018-03-24T04:59:13.244Z,21.87
2018-03-24T05:01:46.957Z,20.90
2018-03-24T05:04:22.865Z,20.93
2018-03-24T05:06:56.684Z,21.07
2018-03-24T05:09:30.490Z,21.40
2018-03-24T05:12:04.088Z,21.17
2018-03-24T05:14:38.435Z,22.23
2018-03-24T05:17:12.466Z,22.33
2018-03-24T05:19:47.519Z,22.33
2018-03-24T05:22:22.056Z,22.93
2018-03-24T05:24:56.446Z,22.93
2018-03-24T05:27:30.856Z,22.53
2018-03-24T05:30:05.577Z,22.13
2018-03-24T05:32:40.704Z,23.43
2018-03-24T05:35:14.998Z,21.73
2018-03-24T05:37:48.738Z,23.60
2018-03-24T05:40:22.822Z,23.77
2018-03-24T05:42:56.646Z,23.83
2018-03-24T05:45:30.614Z,22.83
2018-03-24T05:48:04.431Z,23.27
2018-03-24T05:50:38.674Z,24.00
2018-03-24T05:53:12.943Z,23.00
2018-03-24T05:55:47.557Z,23.03
2018-03-24T05:58:21.495Z,22.97
2018-03-24T06:00:55.395Z,22.03
2018-03-24T06:03:30.633Z,22.13
2018-03-24T06:06:05.097Z,21.80
2018-03-24T06:08:41.165Z,21.83
2018-03-24T06:11:15.945Z,21.90
2018-03-24T06:13:49.645Z,22.10
2018-03-24T06:16:24.314Z,22.20
2018-03-24T06:18:59.424Z,22.50
2018-03-24T06:21:33.614Z,22.83
2018-03-24T06:24:08.696Z,21.60
2018-03-24T06:26:44.683Z,22.03
2018-03-24T06:29:19.863Z,21.00
2018-03-24T06:31:54.522Z,20.00
2018-03-24T06:34:29.024Z,21.77
2018-03-24T06:37:22.474Z,21.77
2018-03-24T06:39:57.962Z,21.60
2018-03-24T06:42:31.966Z,21.27
2018-03-24T06:45:06.498Z,21.57
2018-03-24T06:47:40.319Z,20.33
2018-03-24T06:50:14.159Z,20.77
2018-03-24T06:52:49.332Z,20.70
2018-03-24T06:55:24.678Z,21.70
2018-03-24T06:57:59.774Z,21.07
2018-03-24T07:00:33.717Z,21.13
2018-03-24T07:03:07.939Z,22.57
2018-03-24T07:05:41.626Z,19.87
2018-03-24T07:08:15.587Z,19.37
2018-03-24T07:10:49.513Z,19.93
2018-03-24T07:13:23.690Z,20.07
2018-03-24T07:15:58.101Z,19.50
2018-03-24T07:18:32.022Z,18.20
2018-03-24T07:21:06.322Z,18.77
2018-03-24T07:23:40.810Z,19.57
2018-03-24T07:26:14.545Z,17.47
2018-03-24T07:28:48.467Z,19.07
2018-03-24T07:31:22.407Z,19.03
2018-03-24T07:33:56.305Z,17.43
2018-03-24T07:36:30.170Z,18.70
2018-03-24T07:39:04.361Z,18.53
2018-03-24T07:41:39.026Z,17.70
2018-03-24T07:44:12.898Z,18.20
2018-03-24T07:46:48.293Z,16.40
2018-03-24T07:49:22.367Z,17.07
2018-03-24T07:51:56.966Z,17.27
2018-03-24T07:54:31.526Z,16.43
2018-03-24T07:57:06.067Z,15.90
2018-03-24T07:59:46.421Z,15.87
2018-03-24T08:02:20.941Z,16.93
2018-03-24T08:04:55.455Z,15.70
2018-03-24T08:07:29.630Z,16.23
2018-03-24T08:10:03.691Z,15.97
2018-03-24T08:12:38.126Z,15.73
2018-03-24T08:15:12.539Z,15.17
2018-03-24T08:17:46.946Z,15.53
2018-03-24T08:20:21.213Z,16.77
2018-03-24T08:22:55.027Z,15.83
2018-03-24T08:25:29.543Z,15.37
2018-03-24T08:28:03.307Z,16.23
2018-03-24T08:30:37.457Z,16.77
2018-03-24T08:33:11.389Z,15.90
2018-03-24T08:35:45.141Z,14.97
2018-03-24T08:38:18.994Z,15.80
2018-03-24T08:40:53.318Z,16.70
2018-03-24T08:43:27.059Z,15.23
2018-03-24T08:46:01.103Z,16.57
2018-03-24T08:48:35.058Z,17.73
2018-03-24T08:51:09.704Z,17.53
2018-03-24T08:53:44.589Z,17.43
2018-03-24T08:56:19.050Z,16.87
2018-03-24T08:58:53.533Z,15.10
2018-03-24T09:01:28.006Z,12.60
2018-03-24T09:04:02.221Z,12.17
2018-03-24T09:06:36.944Z,12.03
2018-03-24T09:09:12.048Z,11.20
2018-03-24T09:11:46.886Z,9.97
2018-03-24T09:14:22.306Z,10.97
2018-03-24T09:16:56.805Z,10.67
2018-03-24T09:19:31.467Z,9.47
2018-03-24T09:22:05.273Z,9.20
2018-03-24T09:24:39.034Z,9.00
2018-03-24T09:27:14.732Z,8.70
2018-03-24T09:29:48.723Z,8.43
2018-03-24T09:32:23.594Z,8.53
2018-03-24T09:34:57.985Z,8.77
2018-03-24T09:37:31.890Z,9.67
2018-03-24T09:40:06.472Z,10.73
2018-03-24T09:42:41.711Z,8.20
2018-03-24T09:45:15.507Z,8.57
2018-03-24T09:47:49.900Z,8.43
2018-03-24T09:50:24.485Z,7.40
2018-03-24T09:52:58.534Z,8.73
2018-03-24T09:55:32.413Z,9.77
2018-03-24T09:58:06.584Z,9.40
2018-03-24T10:00:41.970Z,10.27
2018-03-24T10:03:16.034Z,9.33
2018-03-24T10:05:49.776Z,8.60
2018-03-24T10:08:24.979Z,10.67
2018-03-24T10:10:58.984Z,11.57
2018-03-24T10:13:33.482Z,9.33
2018-03-24T10:16:08.388Z,9.73
2018-03-24T10:18:42.483Z,9.73
2018-03-24T10:21:40.019Z,10.57
2018-03-24T10:24:21.061Z,9.90
2018-03-24T10:26:55.284Z,8.40
2018-03-24T10:29:29.070Z,10.53
2018-03-24T10:32:03.693Z,11.13
2018-03-24T10:34:37.740Z,12.03
2018-03-24T10:37:11.841Z,8.73
2018-03-24T10:39:45.794Z,9.60
2018-03-24T10:42:20.446Z,8.90
2018-03-24T10:44:55.598Z,11.10
2018-03-24T10:47:29.824Z,10.50
2018-03-24T10:50:04.553Z,10.40
2018-03-24T10:52:38.879Z,11.87
2018-03-24T10:55:13.130Z,10.33
2018-03-24T10:57:46.953Z,8.80
2018-03-24T11:00:21.212Z,11.40
2018-03-24T11:02:55.848Z,11.23
2018-03-24T11:05:30.008Z,9.40
2018-03-24T11:08:04.732Z,11.83
2018-03-24T11:10:38.831Z,13.60
2018-03-24T11:13:12.549Z,11.80
2018-03-24T11:15:47.308Z,16.27
2018-03-24T11:18:21.847Z,14.83
2018-03-24T11:20:55.916Z,13.83
2018-03-24T11:23:29.745Z,22.73
2018-03-24T11:26:03.582Z,17.13
2018-03-24T11:28:38.159Z,11.13
2018-03-24T11:31:12.499Z,13.10
2018-03-24T11:33:47.060Z,24.10
2018-03-24T11:36:20.966Z,24.53
2018-03-24T11:38:56.048Z,18.00
2018-03-24T11:41:30.505Z,14.07
2018-03-24T11:44:05.705Z,22.33
2018-03-24T11:46:41.170Z,28.47
2018-03-24T11:49:15.985Z,25.77
2018-03-24T11:51:50.556Z,20.43
2018-03-24T11:54:36.256Z,14.53
2018-03-24T11:57:10.533Z,16.27
2018-03-24T11:59:44.782Z,27.23
2018-03-24T12:02:19.804Z,46.93
2018-03-24T12:04:54.572Z,32.70
2018-03-24T12:07:28.964Z,54.60
2018-03-24T12:10:02.734Z,19.90
2018-03-24T12:12:37.365Z,21.90
2018-03-24T12:15:11.833Z,28.40
2018-03-24T12:17:46.370Z,25.60
2018-03-24T12:20:20.445Z,25.37
2018-03-24T12:22:55.208Z,25.53
2018-03-24T12:25:29.822Z,13.97
2018-03-24T12:28:04.380Z,17.57
2018-03-24T12:30:39.793Z,22.93
2018-03-24T12:33:14.787Z,20.60
2018-03-24T12:35:49.036Z,16.23
2018-03-24T12:38:24.105Z,18.10
2018-03-24T12:40:59.654Z,29.07
2018-03-24T12:43:34.430Z,18.60
2018-03-24T12:46:08.215Z,38.27
2018-03-24T12:48:42.920Z,37.10
2018-03-24T12:51:16.954Z,21.73
2018-03-24T12:53:51.061Z,21.07
2018-03-24T12:56:25.563Z,16.07
2018-03-24T12:59:00.130Z,10.80
2018-03-24T13:01:34.776Z,16.67
2018-03-24T13:04:10.090Z,16.90
2018-03-24T13:06:44.049Z,18.97
2018-03-24T13:09:18.822Z,13.53
2018-03-24T13:11:53.901Z,15.03
2018-03-24T13:14:27.978Z,13.17
2018-03-24T13:17:03.402Z,12.30
2018-03-24T13:19:37.719Z,13.67
2018-03-24T13:22:13.279Z,16.30
2018-03-24T13:24:48.191Z,14.70
2018-03-24T13:27:22.264Z,13.73
2018-03-24T13:29:56.430Z,10.73
2018-03-24T13:32:30.097Z,13.03
2018-03-24T13:35:04.039Z,11.73
2018-03-24T13:37:37.881Z,13.73
2018-03-24T13:40:16.731Z,12.77
2018-03-24T13:42:52.071Z,9.30
2018-03-24T13:45:26.895Z,12.57
2018-03-24T13:48:01.776Z,12.23
2018-03-24T13:50:37.087Z,11.30
2018-03-24T13:53:12.400Z,10.57
2018-03-24T13:55:46.851Z,12.07
2018-03-24T13:58:21.846Z,12.23
2018-03-24T14:00:56.191Z,10.20
2018-03-24T14:03:30.689Z,10.83
2018-03-24T14:06:04.777Z,11.47
2018-03-24T14:08:38.638Z,11.07
2018-03-24T14:11:13.413Z,11.13
2018-03-24T14:13:48.179Z,10.83
2018-03-24T14:16:23.246Z,10.70
2018-03-24T14:18:57.661Z,10.20
2018-03-24T14:21:31.769Z,9.90
2018-03-24T14:24:06.902Z,8.63
2018-03-24T14:26:41.094Z,10.30
2018-03-24T14:29:15.245Z,10.37
2018-03-24T14:31:49.485Z,9.63
2018-03-24T14:34:23.165Z,9.87
2018-03-24T14:36:57.813Z,8.37
2018-03-24T14:39:31.665Z,8.20
2018-03-24T14:42:07.486Z,12.80
2018-03-24T14:44:41.243Z,9.98
2018-03-24T14:47:15.439Z,8.13
2018-03-24T14:49:49.175Z,8.63
2018-03-24T14:52:23.703Z,8.37
2018-03-24T14:54:58.289Z,8.80
2018-03-24T14:57:34.367Z,7.77
2018-03-24T15:00:08.498Z,9.00
2018-03-24T15:02:44.026Z,25.07
2018-03-24T15:05:18.162Z,19.67
2018-03-24T15:07:53.069Z,45.17
2018-03-24T15:10:28.069Z,59.20
2018-03-24T15:13:03.237Z,49.90
2018-03-24T15:15:37.503Z,56.73
2018-03-24T15:18:11.570Z,25.93
2018-03-24T15:20:46.006Z,25.90
2018-03-24T15:23:20.710Z,13.17
2018-03-24T15:25:54.775Z,31.40
2018-03-24T15:28:29.197Z,26.27
2018-03-24T15:34:21.947Z,27.57
2018-03-24T15:36:55.863Z,18.60
2018-03-24T15:39:29.866Z,11.60
2018-03-24T15:42:04.217Z,8.47
2018-03-24T15:44:39.194Z,11.83
2018-03-24T15:47:13.706Z,11.63
2018-03-24T15:49:48.837Z,11.53
2018-03-24T15:52:22.650Z,11.73
2018-03-24T15:54:56.491Z,10.83
2018-03-24T15:57:30.308Z,11.77
2018-03-24T16:00:04.218Z,11.37
2018-03-24T16:02:37.881Z,11.73
2018-03-24T16:05:11.999Z,10.53
2018-03-24T16:07:46.121Z,9.03
2018-03-24T16:10:20.346Z,10.50
2018-03-24T16:12:54.232Z,9.90
2018-03-24T16:15:28.843Z,9.00
2018-03-24T16:18:03.374Z,8.30
2018-03-24T16:20:37.590Z,10.23
2018-03-24T16:23:12.266Z,10.10
2018-03-24T16:25:46.527Z,9.57
2018-03-24T16:28:21.731Z,10.73
2018-03-24T16:30:55.915Z,8.17
2018-03-24T16:33:31.183Z,7.43
2018-03-24T16:36:05.387Z,8.30
2018-03-24T16:38:39.243Z,8.20
2018-03-24T16:41:13.157Z,16.07
2018-03-24T16:43:47.055Z,8.60
2018-03-24T16:46:22.513Z,7.33
2018-03-24T16:48:57.227Z,8.80
2018-03-24T16:51:31.224Z,9.03
2018-03-24T16:54:05.819Z,7.90
2018-03-24T16:56:40.680Z,9.20
2018-03-24T16:59:15.388Z,8.10
2018-03-24T17:01:57.798Z,9.20
2018-03-24T17:04:32.229Z,9.30
2018-03-24T17:07:08.603Z,8.33
2018-03-24T17:09:42.528Z,8.50
2018-03-24T17:12:17.139Z,8.20
2018-03-24T17:14:51.262Z,9.55
2018-03-24T17:17:26.081Z,8.50
2018-03-24T17:20:01.182Z,9.40
2018-03-24T17:22:35.092Z,10.53
2018-03-24T17:25:08.742Z,13.17
2018-03-24T17:27:44.562Z,10.90
2018-03-24T17:30:19.673Z,11.07
2018-03-24T17:32:53.959Z,11.07
2018-03-24T17:35:28.595Z,9.67
2018-03-24T17:38:02.626Z,11.00
2018-03-24T17:40:37.161Z,9.60
2018-03-24T17:43:11.842Z,11.70
2018-03-24T17:45:46.403Z,9.93
2018-03-24T17:48:20.314Z,9.20
2018-03-24T17:50:53.932Z,9.50
2018-03-24T17:53:28.051Z,10.18
2018-03-24T17:56:02.682Z,9.93
2018-03-24T17:58:36.725Z,10.23
2018-03-24T18:01:10.503Z,10.63
2018-03-24T18:03:44.450Z,11.70
2018-03-24T18:06:18.304Z,10.23
2018-03-24T18:08:53.150Z,11.27
2018-03-24T18:11:28.399Z,10.60
2018-03-24T18:14:02.390Z,10.40
2018-03-24T18:16:36.256Z,11.03
2018-03-24T18:19:10.340Z,10.73
2018-03-24T18:21:45.517Z,11.07
2018-03-24T18:24:19.635Z,11.43
2018-03-24T18:26:53.533Z,9.93
2018-03-24T18:29:28.518Z,21.47
2018-03-24T18:32:02.938Z,12.53
2018-03-24T18:34:36.982Z,10.07
2018-03-24T18:37:10.802Z,10.30
2018-03-24T18:39:45.675Z,10.93
2018-03-24T18:42:20.198Z,10.73
2018-03-24T18:44:54.731Z,11.57
2018-03-24T18:47:28.750Z,11.37
2018-03-24T18:50:03.354Z,10.93
2018-03-24T18:52:37.249Z,11.83
2018-03-24T18:55:11.912Z,11.87
2018-03-24T18:57:46.648Z,14.97
2018-03-24T19:00:21.025Z,14.10
2018-03-24T19:02:54.705Z,13.47
2018-03-24T19:05:28.438Z,11.67
2018-03-24T19:08:02.215Z,17.90
2018-03-24T19:10:36.368Z,12.10
2018-03-24T19:13:10.854Z,11.73
2018-03-24T19:15:45.134Z,12.80
2018-03-24T19:18:18.880Z,13.93
2018-03-24T19:20:53.496Z,12.43
2018-03-24T19:23:28.228Z,14.07
2018-03-24T19:26:02.640Z,12.87
2018-03-24T19:28:36.680Z,11.90
2018-03-24T19:31:11.098Z,13.53
2018-03-24T19:33:44.935Z,11.20
2018-03-24T19:36:19.355Z,12.30
2018-03-24T19:38:53.679Z,12.47
2018-03-24T19:41:27.468Z,12.00
2018-03-24T19:44:01.103Z,11.53
2018-03-24T19:46:35.896Z,12.17
2018-03-24T19:49:09.994Z,11.13
2018-03-24T19:51:44.327Z,11.73
2018-03-24T19:54:19.901Z,12.33
2018-03-24T19:56:55.306Z,11.93
2018-03-24T19:59:30.283Z,12.10
2018-03-24T20:02:04.314Z,11.93
2018-03-24T20:04:38.878Z,12.07
2018-03-24T20:07:13.916Z,10.53
2018-03-24T20:09:50.207Z,10.93
2018-03-24T20:12:24.268Z,12.77
2018-03-24T20:14:58.720Z,11.07
2018-03-24T20:17:33.841Z,11.77
2018-03-24T20:20:09.100Z,12.20
2018-03-24T20:22:43.992Z,12.63
2018-03-24T20:25:18.616Z,13.47
2018-03-24T20:27:53.390Z,15.73
2018-03-24T20:30:34.081Z,11.13
2018-03-24T20:33:07.852Z,11.80
2018-03-24T20:35:41.642Z,12.90
2018-03-24T20:38:16.080Z,14.33
2018-03-24T20:40:50.209Z,12.20
2018-03-24T20:43:25.729Z,12.77
2018-03-24T20:46:00.851Z,14.47
2018-03-24T20:48:35.380Z,13.63
2018-03-24T20:51:10.001Z,17.13
2018-03-24T20:56:24.743Z,13.30
2018-03-24T20:58:59.350Z,14.33
2018-03-24T21:01:34.206Z,15.10
2018-03-24T21:04:08.198Z,12.87
2018-03-24T21:06:42.626Z,13.33
2018-03-24T21:09:17.075Z,13.10
2018-03-24T21:11:52.090Z,13.33
2018-03-24T21:14:26.749Z,13.23
2018-03-24T21:17:00.679Z,15.63
2018-03-24T21:19:35.481Z,13.97
2018-03-24T21:22:10.913Z,14.47
2018-03-24T21:24:44.973Z,15.20
2018-03-24T21:27:19.935Z,14.30
2018-03-24T21:29:54.972Z,13.90
2018-03-24T21:32:28.814Z,15.03
2018-03-24T21:35:03.730Z,15.63
2018-03-24T21:37:39.001Z,15.27
2018-03-24T21:40:13.715Z,15.53
2018-03-24T21:42:48.490Z,16.63
2018-03-24T21:45:22.513Z,15.67
2018-03-24T21:47:56.193Z,17.20
2018-03-24T21:50:34.445Z,15.80
2018-03-24T21:53:09.685Z,15.43
2018-03-24T21:55:43.954Z,16.07
2018-03-24T21:58:19.238Z,15.83
2018-03-24T22:00:54.474Z,16.73
2018-03-24T22:03:29.001Z,18.70
2018-03-24T22:06:06.609Z,17.63
2018-03-24T22:08:41.201Z,17.57
2018-03-24T22:11:16.017Z,16.57
2018-03-24T22:13:50.971Z,18.10
2018-03-24T22:16:25.823Z,18.10
2018-03-24T22:19:00.354Z,17.33
2018-03-24T22:21:35.274Z,18.00
2018-03-24T22:24:09.082Z,19.10
2018-03-24T22:26:43.080Z,17.53
2018-03-24T22:29:17.652Z,17.57
2018-03-24T22:31:52.532Z,19.53
2018-03-24T22:34:28.006Z,20.70
2018-03-24T22:37:01.784Z,20.40
2018-03-24T22:39:36.321Z,19.77
2018-03-24T22:42:11.655Z,18.90
2018-03-24T22:44:45.781Z,19.30
2018-03-24T22:47:20.308Z,20.90
2018-03-24T22:49:55.108Z,19.33
2018-03-24T22:52:29.950Z,20.63
2018-03-24T22:55:04.778Z,18.50
2018-03-24T22:57:39.825Z,17.40
2018-03-24T23:00:15.145Z,18.17
2018-03-24T23:02:49.382Z,18.13
2018-03-24T23:05:24.582Z,21.80
2018-03-24T23:07:59.547Z,18.93
2018-03-24T23:10:33.440Z,18.33
2018-03-24T23:13:07.999Z,17.87
2018-03-24T23:15:42.050Z,19.00
2018-03-24T23:18:16.628Z,18.73
2018-03-24T23:20:50.477Z,19.80
2018-03-24T23:23:25.362Z,18.90
2018-03-24T23:25:59.837Z,20.67
2018-03-24T23:28:34.285Z,19.63
2018-03-24T23:31:08.920Z,18.83
2018-03-24T23:33:43.021Z,18.77
2018-03-24T23:36:18.456Z,18.17
2018-03-24T23:38:53.214Z,18.50
2018-03-24T23:41:28.889Z,17.73
2018-03-24T23:44:03.996Z,19.40
2018-03-24T23:46:39.413Z,19.07
2018-03-24T23:49:14.458Z,20.37
2018-03-24T23:51:49.875Z,20.27
2018-03-24T23:54:24.932Z,19.70
2018-03-24T23:56:59.626Z,21.80
2018-03-24T23:59:33.914Z,19.53
